Time;durP1;ratioP1;P1;durP2;ratioP2;P2;SDS_P1;SDS_P2;PMS_P1;PMS_P2;Temp;Humidity;BMP_temperature;BMP_pressure;BME280_temperature;BME280_humidity;BME280_pressure;Samples;Min_cycle;Max_cycle;Signal;HPM_P1;HPM_P2
2022/10/21 00:00:44;;;;;;;15.68;11.38;;;16.70;96.00;;;;;;4591023;19;20031;-30
2022/10/21 00:02:35;;;;;;;15.80;11.68;;;16.60;96.00;;;;;;4591712;19;20028;-32
2022/10/21 00:04:06;;;;;;;16.13;11.43;;;16.70;96.00;;;;;;4591016;19;20378;-30
2022/10/21 00:05:40;;;;;;;15.00;11.43;;;16.60;96.00;;;;;;4591757;19;20015;-33
2022/10/21 00:07:11;;;;;;;16.10;12.38;;;16.70;96.00;;;;;;4590753;19;20448;-29
2022/10/21 00:08:42;;;;;;;16.77;13.07;;;16.60;95.90;;;;;;4592321;19;20360;-30
2022/10/21 00:10:13;;;;;;;15.00;12.07;;;16.60;95.90;;;;;;4592460;19;20021;-31
2022/10/21 00:11:44;;;;;;;15.77;11.88;;;16.60;95.90;;;;;;4592356;19;20074;-30
2022/10/21 00:13:17;;;;;;;15.63;12.07;;;16.60;95.90;;;;;;4591382;19;20467;-32
2022/10/21 00:14:48;;;;;;;14.60;11.00;;;16.60;95.90;;;;;;4591546;19;20068;-30
2022/10/21 00:16:38;;;;;;;15.18;12.00;;;16.60;95.90;;;;;;4589268;19;20007;-31
2022/10/21 00:18:09;;;;;;;12.65;10.38;;;16.60;95.80;;;;;;4591012;19;20388;-32
2022/10/21 00:19:41;;;;;;;13.50;11.07;;;16.60;95.80;;;;;;4592704;19;20074;-32
2022/10/21 00:21:17;;;;;;;12.75;9.45;;;16.60;95.80;;;;;;4591730;19;20023;-32
2022/10/21 00:22:48;;;;;;;13.98;9.65;;;16.60;95.80;;;;;;4591624;19;20468;-30
2022/10/21 00:24:19;;;;;;;11.50;9.20;;;16.60;95.80;;;;;;4592733;19;19998;-32
2022/10/21 00:25:55;;;;;;;10.82;8.20;;;16.60;95.80;;;;;;4591737;19;20016;-32
2022/10/21 00:27:26;;;;;;;12.63;8.77;;;16.60;95.80;;;;;;4590652;19;20015;-32
2022/10/21 00:28:58;;;;;;;11.05;8.48;;;16.60;95.70;;;;;;4590381;19;20511;-31
2022/10/21 00:30:29;;;;;;;10.43;7.68;;;16.60;95.70;;;;;;4591810;19;20015;-31
2022/10/21 00:32:00;;;;;;;11.48;8.65;;;16.60;95.70;;;;;;4591425;19;20031;-33
2022/10/21 00:33:31;;;;;;;11.40;8.85;;;16.60;95.70;;;;;;4590615;19;20044;-33
2022/10/21 00:35:04;;;;;;;13.77;9.35;;;16.60;95.70;;;;;;4591696;19;20010;-31
2022/10/21 00:36:35;;;;;;;10.15;7.68;;;16.60;95.60;;;;;;4589766;19;20042;-31
2022/10/21 00:38:06;;;;;;;10.73;8.07;;;16.60;95.60;;;;;;4591317;19;20018;-30
2022/10/21 00:39:37;;;;;;;10.98;8.05;;;16.60;95.50;;;;;;4591790;19;20010;-30
2022/10/21 00:41:09;;;;;;;10.40;8.00;;;16.60;95.50;;;;;;4590663;19;20014;-31
2022/10/21 00:42:40;;;;;;;11.57;8.93;;;16.60;95.50;;;;;;4591626;19;20007;-33
2022/10/21 00:44:14;;;;;;;11.20;7.90;;;16.60;95.40;;;;;;4590052;19;20475;-32
2022/10/21 00:45:46;;;;;;;11.23;8.13;;;16.60;95.40;;;;;;4590932;19;20015;-30
2022/10/21 00:47:17;;;;;;;11.27;7.80;;;16.60;95.40;;;;;;4590906;19;20062;-31
2022/10/21 00:48:52;;;;;;;10.50;7.90;;;16.60;95.40;;;;;;4590520;19;20025;-33
2022/10/21 00:50:32;;;;;;;12.75;8.60;;;16.60;95.30;;;;;;4589967;19;20374;-31
2022/10/21 00:52:05;;;;;;;10.57;7.60;;;16.60;95.30;;;;;;4590185;19;20547;-31
2022/10/21 00:53:38;;;;;;;10.57;8.35;;;16.60;95.30;;;;;;4589643;19;19990;-30
2022/10/21 00:55:10;;;;;;;9.27;7.32;;;16.60;95.30;;;;;;4590224;19;20018;-33
2022/10/21 00:56:41;;;;;;;12.02;8.00;;;16.60;95.20;;;;;;4590105;19;20491;-31
2022/10/21 00:58:12;;;;;;;9.85;7.57;;;16.60;95.10;;;;;;4590732;19;20046;-30
2022/10/21 00:59:45;;;;;;;10.38;8.05;;;16.60;95.10;;;;;;4590530;19;20069;-30
2022/10/21 01:01:16;;;;;;;9.45;7.20;;;16.60;95.10;;;;;;4589743;19;20058;-30
2022/10/21 01:02:47;;;;;;;9.93;7.05;;;16.60;95.00;;;;;;4589696;19;20508;-31
2022/10/21 01:04:18;;;;;;;12.15;8.45;;;16.60;95.00;;;;;;4589847;19;20022;-31
2022/10/21 01:05:50;;;;;;;11.50;7.97;;;16.60;95.00;;;;;;4590913;19;20006;-31
2022/10/21 01:07:21;;;;;;;9.98;7.35;;;16.60;95.00;;;;;;4590689;19;20036;-31
2022/10/21 01:08:53;;;;;;;11.07;7.40;;;16.60;94.90;;;;;;4589705;19;20349;-31
2022/10/21 01:10:24;;;;;;;10.05;8.32;;;16.60;94.90;;;;;;4590592;19;20003;-30
2022/10/21 01:11:55;;;;;;;9.65;7.47;;;16.60;94.80;;;;;;4591272;19;20361;-29
2022/10/21 01:14:03;;;;;;;8.77;6.65;;;16.60;94.70;;;;;;4587824;19;20015;-30
2022/10/21 01:15:55;;;;;;;10.35;7.15;;;16.70;94.60;;;;;;4588926;19;20011;-33
2022/10/21 01:17:26;;;;;;;;;;;16.70;94.50;;;;;;4591427;19;20010;-30
2022/10/21 01:19:16;;;;;;;10.98;7.43;;;16.70;94.50;;;;;;4591227;19;20385;-30
2022/10/21 01:21:12;;;;;;;10.98;6.97;;;16.70;94.50;;;;;;4590552;19;20014;-31
2022/10/21 01:23:17;;;;;;;9.57;6.70;;;16.70;94.60;;;;;;4589253;19;20031;-30
2022/10/21 01:25:17;;;;;;;8.57;6.65;;;16.70;94.30;;;;;;4590938;19;20006;-31
2022/10/21 01:27:29;;;;;;;7.80;6.20;;;16.70;94.20;;;;;;4590701;19;20011;-31
2022/10/21 01:29:12;;;;;;;9.05;6.43;;;16.70;94.10;;;;;;4590238;19;20084;-28
2022/10/21 01:31:12;;;;;;;9.57;6.82;;;16.70;94.00;;;;;;4590952;19;20091;-31
2022/10/21 01:33:06;;;;;;;10.43;7.90;;;16.70;94.00;;;;;;4589117;19;20018;-32
2022/10/21 01:35:13;;;;;;;11.45;7.22;;;16.70;94.00;;;;;;4589426;19;20014;-32
2022/10/21 01:36:53;;;;;;;9.82;7.70;;;16.70;94.00;;;;;;4588117;19;20103;-31
2022/10/21 01:38:29;;;;;;;11.68;8.10;;;16.60;93.90;;;;;;4587900;19;20014;-33
2022/10/21 01:40:07;;;;;;;12.23;9.02;;;16.60;93.90;;;;;;4587857;19;20014;-31
2022/10/21 01:41:42;;;;;;;11.27;8.82;;;16.60;93.90;;;;;;4587606;19;20015;-31
2022/10/21 01:43:26;;;;;;;10.85;7.65;;;16.60;93.90;;;;;;4588553;19;20003;-30
2022/10/21 01:45:01;;;;;;;11.82;8.65;;;16.60;93.90;;;;;;4587804;19;20140;-30
2022/10/21 01:46:52;;;;;;;11.60;7.45;;;16.60;93.90;;;;;;4587551;19;20346;-31
2022/10/21 01:48:33;;;;;;;10.73;7.50;;;16.60;93.90;;;;;;4587221;19;20015;-31
2022/10/21 01:50:11;;;;;;;10.98;7.45;;;16.60;93.90;;;;;;4588087;19;20405;-31
2022/10/21 01:51:43;;;;;;;11.35;7.30;;;16.60;93.80;;;;;;4587788;19;20031;-30
2022/10/21 01:53:15;;;;;;;9.00;7.18;;;16.60;93.80;;;;;;4586856;19;20479;-32
2022/10/21 01:54:50;;;;;;;12.13;7.70;;;16.60;93.80;;;;;;4587471;19;20021;-31
2022/10/21 01:56:21;;;;;;;8.70;6.60;;;16.60;93.80;;;;;;4587424;19;20086;-30
2022/10/21 01:57:56;;;;;;;9.50;7.28;;;16.60;93.80;;;;;;4588274;19;20010;-30
2022/10/21 01:59:30;;;;;;;9.65;7.45;;;16.60;93.80;;;;;;4587417;19;20021;-31
2022/10/21 02:01:01;;;;;;;10.18;7.30;;;16.60;93.80;;;;;;4587742;19;20571;-30
2022/10/21 02:02:37;;;;;;;10.75;7.05;;;16.60;93.70;;;;;;4587808;19;20501;-30
2022/10/21 02:04:09;;;;;;;9.88;6.63;;;16.50;93.70;;;;;;4587736;19;20508;-32
2022/10/21 02:05:40;;;;;;;11.75;7.75;;;16.60;93.70;;;;;;4587359;19;20086;-30
2022/10/21 02:07:11;;;;;;;9.48;6.63;;;16.60;93.70;;;;;;4586255;19;20413;-32
2022/10/21 02:08:42;;;;;;;10.23;7.10;;;16.60;93.70;;;;;;4587509;19;20350;-30
2022/10/21 02:10:14;;;;;;;9.48;6.53;;;16.50;93.70;;;;;;4587776;19;20014;-31
2022/10/21 02:11:46;;;;;;;;;;;16.50;93.60;;;;;;4588341;19;20014;-32
2022/10/21 02:13:21;;;;;;;9.20;6.60;;;16.50;93.70;;;;;;4587101;19;19943;-32
2022/10/21 02:14:52;;;;;;;10.32;6.22;;;16.50;93.90;;;;;;4589119;19;20344;-32
2022/10/21 02:16:29;;;;;;;10.65;7.40;;;16.50;94.00;;;;;;4588801;19;20031;-32
2022/10/21 02:18:07;;;;;;;10.07;6.60;;;16.50;94.00;;;;;;4588480;19;20115;-31
2022/10/21 02:19:38;;;;;;;9.75;7.10;;;16.50;94.00;;;;;;4588424;19;20514;-32
2022/10/21 02:21:17;;;;;;;10.18;6.72;;;16.60;94.00;;;;;;4589376;19;20032;-30
2022/10/21 02:22:49;;;;;;;11.00;6.65;;;16.60;93.90;;;;;;4589905;19;20006;-32
2022/10/21 02:24:28;;;;;;;8.70;6.20;;;16.60;93.90;;;;;;4588484;19;20002;-33
2022/10/21 02:25:59;;;;;;;8.65;6.50;;;16.60;93.90;;;;;;4589307;19;20014;-34
2022/10/21 02:27:31;;;;;;;8.85;5.70;;;16.70;93.90;;;;;;4588518;19;20488;-31
2022/10/21 02:29:02;;;;;;;8.73;6.40;;;16.60;93.80;;;;;;4588656;19;20007;-31
2022/10/21 02:30:42;;;;;;;8.63;6.90;;;16.60;93.90;;;;;;4588381;19;20013;-32
2022/10/21 02:32:38;;;;;;;8.43;6.25;;;16.60;93.90;;;;;;4588324;19;20010;-35
2022/10/21 02:34:52;;;;;;;8.88;6.40;;;16.60;93.90;;;;;;4588199;19;20035;-29
2022/10/21 02:36:50;;;;;;;9.48;5.97;;;16.60;93.90;;;;;;4587144;19;20023;-32
2022/10/21 02:38:26;;;;;;;9.13;6.07;;;16.60;93.90;;;;;;4587404;19;20039;-31
2022/10/21 02:40:08;;;;;;;8.68;6.20;;;16.60;93.90;;;;;;4587011;19;20090;-30
2022/10/21 02:41:41;;;;;;;9.27;6.57;;;16.60;94.00;;;;;;4587808;19;20011;-30
2022/10/21 02:43:20;;;;;;;8.75;6.22;;;16.60;94.00;;;;;;4587002;19;20010;-30
2022/10/21 02:44:51;;;;;;;10.27;7.10;;;16.60;94.00;;;;;;4587212;19;20501;-31
2022/10/21 02:46:23;;;;;;;9.38;6.00;;;16.60;93.90;;;;;;4587339;19;20018;-31
2022/10/21 02:47:54;;;;;;;8.45;6.45;;;16.60;93.90;;;;;;4587505;19;20006;-29
2022/10/21 02:49:25;;;;;;;8.82;6.55;;;16.60;93.90;;;;;;4587050;19;20003;-29
2022/10/21 02:50:56;;;;;;;8.32;6.22;;;16.60;94.00;;;;;;4587194;19;20007;-33
2022/10/21 02:52:27;;;;;;;9.88;6.88;;;16.60;93.90;;;;;;4585794;19;20514;-32
2022/10/21 02:53:58;;;;;;;9.50;6.93;;;16.60;93.90;;;;;;4587283;19;20006;-31
2022/10/21 02:55:30;;;;;;;9.32;7.10;;;16.60;93.80;;;;;;4586857;19;20014;-34
2022/10/21 02:57:01;;;;;;;9.13;6.60;;;16.60;93.80;;;;;;4586861;19;20014;-30
2022/10/21 02:58:32;;;;;;;9.00;7.40;;;16.60;93.90;;;;;;4586761;19;20523;-30
2022/10/21 03:00:05;;;;;;;9.48;6.78;;;16.60;93.90;;;;;;4588548;19;20378;-29
2022/10/21 03:01:36;;;;;;;9.73;6.47;;;16.60;93.80;;;;;;4591499;19;20363;-30
2022/10/21 03:03:07;;;;;;;9.88;6.93;;;16.60;93.80;;;;;;4591428;19;20007;-33
2022/10/21 03:04:38;;;;;;;9.07;6.85;;;16.60;93.80;;;;;;4591709;19;20334;-30
2022/10/21 03:06:10;;;;;;;8.40;6.43;;;16.60;93.80;;;;;;4590869;19;20034;-29
2022/10/21 03:07:41;;;;;;;10.45;7.05;;;16.50;93.80;;;;;;4591103;19;20044;-30
2022/10/21 03:09:12;;;;;;;10.88;7.22;;;16.60;93.90;;;;;;4591502;19;20010;-32
2022/10/21 03:10:48;;;;;;;8.05;6.32;;;16.50;93.80;;;;;;4591591;19;20552;-32
2022/10/21 03:12:19;;;;;;;10.85;7.78;;;16.50;93.80;;;;;;4592588;19;20432;-33
2022/10/21 03:13:50;;;;;;;9.15;6.68;;;16.50;93.80;;;;;;4593671;19;20014;-31
2022/10/21 03:15:21;;;;;;;10.52;6.85;;;16.60;93.80;;;;;;4593342;19;20082;-31
2022/10/21 03:16:52;;;;;;;9.27;6.85;;;16.60;93.90;;;;;;4593710;19;20010;-31
2022/10/21 03:18:23;;;;;;;9.77;7.45;;;16.60;93.80;;;;;;4593257;19;20013;-31
2022/10/21 03:19:54;;;;;;;11.77;7.18;;;16.60;93.80;;;;;;4593393;19;20015;-30
2022/10/21 03:21:25;;;;;;;8.73;6.70;;;16.60;93.90;;;;;;4593938;19;20023;-30
2022/10/21 03:22:56;;;;;;;8.98;7.05;;;16.60;93.80;;;;;;4592000;19;20034;-30
2022/10/21 03:24:27;;;;;;;11.40;7.00;;;16.60;93.80;;;;;;4592681;19;20011;-31
2022/10/21 03:25:58;;;;;;;10.25;7.10;;;16.60;93.70;;;;;;4592862;19;20007;-30
2022/10/21 03:27:29;;;;;;;10.70;7.05;;;16.60;93.80;;;;;;4593655;19;20010;-31
2022/10/21 03:29:01;;;;;;;9.70;6.95;;;16.60;93.80;;;;;;4591538;19;20589;-31
2022/10/21 03:30:32;;;;;;;10.52;7.05;;;16.50;93.70;;;;;;4592682;19;20006;-29
2022/10/21 03:32:03;;;;;;;8.88;6.55;;;16.60;93.80;;;;;;4593156;19;20031;-28
2022/10/21 03:33:34;;;;;;;10.70;8.30;;;16.50;93.80;;;;;;4591848;19;20098;-34
2022/10/21 03:35:06;;;;;;;11.52;8.18;;;16.50;93.70;;;;;;4593001;19;20014;-30
2022/10/21 03:36:37;;;;;;;;;;;16.50;93.70;;;;;;4593534;19;20011;-30
2022/10/21 03:38:08;;;;;;;10.25;7.75;;;16.50;93.60;;;;;;4593213;19;19914;-34
2022/10/21 03:39:39;;;;;;;10.75;8.45;;;16.50;93.60;;;;;;4593676;19;20003;-33
2022/10/21 03:41:10;;;;;;;10.48;7.93;;;16.50;93.60;;;;;;4593000;19;20006;-30
2022/10/21 03:42:41;;;;;;;12.23;8.18;;;16.50;93.60;;;;;;4592733;19;20023;-31
2022/10/21 03:44:12;;;;;;;10.65;7.75;;;16.50;93.60;;;;;;4592762;19;20046;-29
2022/10/21 03:45:46;;;;;;;12.82;8.35;;;16.50;93.60;;;;;;4592624;19;20477;-31
2022/10/21 03:47:17;;;;;;;11.30;7.60;;;16.50;93.50;;;;;;4592374;19;20031;-30
2022/10/21 03:48:48;;;;;;;10.73;7.72;;;16.50;93.60;;;;;;4592976;19;20006;-30
2022/10/21 03:50:19;;;;;;;14.32;8.02;;;16.50;93.60;;;;;;4592804;19;20010;-31
2022/10/21 03:51:50;;;;;;;11.35;8.30;;;16.50;93.50;;;;;;4591762;19;20077;-31
2022/10/21 03:53:22;;;;;;;10.90;7.68;;;16.50;93.50;;;;;;4591725;19;20015;-30
2022/10/21 03:54:53;;;;;;;10.32;6.93;;;16.50;93.60;;;;;;4592923;19;20014;-30
2022/10/21 03:56:24;;;;;;;14.32;10.05;;;16.50;93.50;;;;;;4593188;19;20023;-31
2022/10/21 03:57:55;;;;;;;11.02;8.50;;;16.50;93.40;;;;;;4592408;19;20341;-31
2022/10/21 03:59:26;;;;;;;12.00;8.65;;;16.60;93.80;;;;;;4592484;19;20014;-30
2022/10/21 04:00:57;;;;;;;13.20;8.70;;;16.50;93.50;;;;;;4592503;19;20360;-32
2022/10/21 04:02:28;;;;;;;9.95;7.45;;;16.50;93.60;;;;;;4592088;19;20011;-30
2022/10/21 04:04:00;;;;;;;10.32;7.97;;;16.60;93.60;;;;;;4592245;19;20019;-31
2022/10/21 04:05:31;;;;;;;11.60;8.48;;;16.50;93.70;;;;;;4592709;19;20530;-30
2022/10/21 04:07:02;;;;;;;10.50;7.65;;;16.50;93.70;;;;;;4591520;19;20026;-30
2022/10/21 04:08:33;;;;;;;11.82;7.85;;;16.50;93.70;;;;;;4592082;19;20026;-33
2022/10/21 04:10:05;;;;;;;9.38;7.45;;;16.50;93.70;;;;;;4592412;19;20018;-30
2022/10/21 04:11:36;;;;;;;;;;;16.60;93.70;;;;;;4592146;19;20011;-29
2022/10/21 04:13:07;;;;;;;10.52;7.80;;;16.60;93.90;;;;;;4590716;19;19935;-36
2022/10/21 04:14:38;;;;;;;9.55;8.15;;;16.50;93.70;;;;;;4591613;19;20052;-30
2022/10/21 04:16:12;;;;;;;10.85;8.30;;;16.50;93.70;;;;;;4592314;19;20007;-30
2022/10/21 04:17:46;;;;;;;13.63;8.52;;;16.50;93.70;;;;;;4590772;19;20353;-32
2022/10/21 04:19:18;;;;;;;10.25;8.43;;;16.50;93.70;;;;;;4592181;19;20009;-32
2022/10/21 04:20:49;;;;;;;10.88;8.57;;;16.60;93.70;;;;;;4591787;19;20026;-32
2022/10/21 04:22:20;;;;;;;10.82;8.45;;;16.50;93.80;;;;;;4592183;19;20032;-30
2022/10/21 04:23:52;;;;;;;11.63;9.20;;;16.50;93.80;;;;;;4592464;19;20006;-33
2022/10/21 04:25:22;;;;;;;15.02;10.40;;;16.50;93.80;;;;;;4591637;19;20020;-30
2022/10/21 04:26:55;;;;;;;11.38;8.48;;;16.50;93.70;;;;;;4591721;19;20018;-33
2022/10/21 04:28:26;;;;;;;13.63;8.43;;;16.50;93.70;;;;;;4591979;19;20459;-32
2022/10/21 04:29:57;;;;;;;11.38;7.78;;;16.60;93.70;;;;;;4591896;19;20040;-31
2022/10/21 04:31:29;;;;;;;10.70;8.30;;;16.50;93.70;;;;;;4591535;19;20003;-32
2022/10/21 04:33:00;;;;;;;9.60;8.00;;;16.60;93.80;;;;;;4590996;19;20081;-30
2022/10/21 04:34:31;;;;;;;11.00;8.38;;;16.50;93.80;;;;;;4591703;19;20350;-34
2022/10/21 04:36:03;;;;;;;11.98;9.27;;;16.50;93.70;;;;;;4592342;19;20070;-31
2022/10/21 04:37:34;;;;;;;;;;;16.50;93.80;;;;;;4592196;19;20041;-31
2022/10/21 04:39:06;;;;;;;9.80;7.60;;;16.50;93.70;;;;;;4591848;19;20336;-31
2022/10/21 04:40:37;;;;;;;10.48;8.30;;;16.50;93.70;;;;;;4590639;19;20463;-30
2022/10/21 04:42:09;;;;;;;12.73;9.55;;;16.60;93.70;;;;;;4591837;19;20019;-34
2022/10/21 04:43:41;;;;;;;12.90;9.43;;;16.60;93.70;;;;;;4592015;19;20476;-33
2022/10/21 04:45:11;;;;;;;12.07;9.60;;;16.60;93.60;;;;;;4591390;19;20021;-32
2022/10/21 04:46:42;;;;;;;12.55;9.38;;;16.60;93.60;;;;;;4591699;19;20031;-31
2022/10/21 04:48:14;;;;;;;13.32;9.48;;;16.60;93.60;;;;;;4591685;19;20056;-29
2022/10/21 04:49:45;;;;;;;12.07;9.15;;;16.60;93.60;;;;;;4591063;19;20006;-31
2022/10/21 04:51:16;;;;;;;13.05;9.05;;;16.60;93.60;;;;;;4590745;19;20010;-30
2022/10/21 04:52:47;;;;;;;15.13;10.52;;;16.60;93.60;;;;;;4589340;19;20776;-29
2022/10/21 04:54:19;;;;;;;14.93;10.70;;;16.60;93.60;;;;;;4587738;19;20404;-31
2022/10/21 04:55:52;;;;;;;17.27;12.27;;;16.60;93.60;;;;;;4588260;19;20022;-30
2022/10/21 04:57:23;;;;;;;14.48;10.27;;;16.60;93.70;;;;;;4586371;19;20077;-31
2022/10/21 04:58:54;;;;;;;12.40;9.88;;;16.60;93.60;;;;;;4587392;19;20018;-31
2022/10/21 05:00:26;;;;;;;13.70;10.77;;;16.60;93.60;;;;;;4589777;19;20087;-31
2022/10/21 05:01:57;;;;;;;13.55;10.40;;;16.60;93.60;;;;;;4590568;19;20019;-29
2022/10/21 05:03:28;;;;;;;13.93;10.45;;;16.60;93.70;;;;;;4590526;19;20026;-30
2022/10/21 05:04:59;;;;;;;14.00;10.15;;;16.60;93.70;;;;;;4591175;19;20774;-34
2022/10/21 05:06:30;;;;;;;12.77;9.27;;;16.60;93.80;;;;;;4590078;19;20019;-31
2022/10/21 05:08:01;;;;;;;11.52;8.70;;;16.60;93.80;;;;;;4590443;19;20810;-30
2022/10/21 05:09:33;;;;;;;12.30;9.27;;;16.60;93.80;;;;;;4590832;19;20344;-30
2022/10/21 05:11:04;;;;;;;12.15;8.80;;;16.60;93.80;;;;;;4590300;19;20463;-33
2022/10/21 05:12:36;;;;;;;12.65;9.70;;;16.60;93.90;;;;;;4590023;19;20011;-31
2022/10/21 05:14:07;;;;;;;13.35;9.95;;;16.60;93.90;;;;;;4589809;19;20014;-33
2022/10/21 05:15:38;;;;;;;15.73;10.02;;;16.60;93.90;;;;;;4591078;19;20460;-31
2022/10/21 05:17:09;;;;;;;13.13;9.95;;;16.60;93.90;;;;;;4590617;19;20071;-32
2022/10/21 05:18:40;;;;;;;;;;;16.50;93.90;;;;;;4591710;19;20014;-31
2022/10/21 05:20:11;;;;;;;12.65;9.85;;;16.60;93.90;;;;;;4590371;19;20303;-30
2022/10/21 05:21:42;;;;;;;11.55;9.55;;;16.60;93.80;;;;;;4590706;19;20476;-30
2022/10/21 05:23:14;;;;;;;11.90;9.55;;;16.60;93.80;;;;;;4589403;19;20030;-32
2022/10/21 05:24:45;;;;;;;12.77;8.63;;;16.60;93.90;;;;;;4584624;19;20540;-31
2022/10/21 05:26:16;;;;;;;12.75;9.45;;;16.60;93.90;;;;;;4588071;19;20152;-32
2022/10/21 05:27:47;;;;;;;11.18;9.70;;;16.60;93.90;;;;;;4589083;19;20100;-34
2022/10/21 05:29:23;;;;;;;12.13;8.77;;;16.50;93.90;;;;;;4588039;19;20496;-31
2022/10/21 05:30:56;;;;;;;11.73;9.15;;;16.60;93.90;;;;;;4589060;19;20403;-29
2022/10/21 05:32:28;;;;;;;13.63;9.10;;;16.60;94.00;;;;;;4588010;19;20011;-31
2022/10/21 05:34:00;;;;;;;12.80;10.02;;;16.60;94.00;;;;;;4588909;19;20027;-30
2022/10/21 05:35:32;;;;;;;12.75;9.68;;;16.60;94.10;;;;;;4587816;19;20381;-30
2022/10/21 05:37:07;;;;;;;13.80;10.45;;;16.60;94.00;;;;;;4587731;19;20093;-31
2022/10/21 05:38:44;;;;;;;13.60;11.02;;;16.60;94.00;;;;;;4589186;19;20030;-36
2022/10/21 05:40:17;;;;;;;15.40;11.00;;;16.60;94.10;;;;;;4587916;19;20018;-31
2022/10/21 05:41:48;;;;;;;14.35;11.05;;;16.60;94.00;;;;;;4588045;19;20086;-32
2022/10/21 05:43:21;;;;;;;;;;;16.60;94.10;;;;;;4587751;19;20018;-28
2022/10/21 05:44:54;;;;;;;12.95;9.63;;;16.60;94.00;;;;;;4588959;19;20342;-30
2022/10/21 05:46:33;;;;;;;12.65;9.93;;;16.60;94.10;;;;;;4587193;19;20079;-32
2022/10/21 05:48:05;;;;;;;14.32;10.55;;;16.60;94.20;;;;;;4587911;19;20020;-31
2022/10/21 05:49:36;;;;;;;11.65;9.27;;;16.60;94.20;;;;;;4588415;19;20476;-31
2022/10/21 05:51:07;;;;;;;9.80;8.05;;;16.60;94.20;;;;;;4588695;19;20047;-31
2022/10/21 05:52:39;;;;;;;11.70;9.20;;;16.60;94.20;;;;;;4587645;19;20019;-30
2022/10/21 05:54:10;;;;;;;12.98;9.80;;;16.60;94.20;;;;;;4588491;19;20101;-33
2022/10/21 05:55:44;;;;;;;12.45;8.60;;;16.60;94.30;;;;;;4586304;19;20021;-30
2022/10/21 05:57:20;;;;;;;13.77;9.63;;;16.50;94.40;;;;;;4586675;19;20011;-31
2022/10/21 05:58:52;;;;;;;13.73;9.32;;;16.50;94.30;;;;;;4586266;19;20007;-31
2022/10/21 06:00:24;;;;;;;16.10;11.20;;;16.60;94.30;;;;;;4585913;19;20013;-31
2022/10/21 06:01:57;;;;;;;13.07;10.25;;;16.60;94.30;;;;;;4585994;19;20003;-29
2022/10/21 06:03:30;;;;;;;13.23;10.15;;;16.70;94.30;;;;;;4590611;19;20596;-31
2022/10/21 06:05:01;;;;;;;12.23;10.00;;;16.80;94.20;;;;;;4589174;19;20511;-30
2022/10/21 06:06:32;;;;;;;11.95;9.38;;;16.90;94.20;;;;;;4589218;19;20405;-31
2022/10/21 06:08:03;;;;;;;13.45;9.23;;;17.00;94.20;;;;;;4590039;19;20006;-34
2022/10/21 06:09:36;;;;;;;13.40;10.60;;;17.10;94.20;;;;;;4589762;19;20005;-30
2022/10/21 06:11:09;;;;;;;12.30;9.80;;;17.10;94.20;;;;;;4589960;19;20010;-30
2022/10/21 06:12:40;;;;;;;14.85;10.30;;;17.20;94.20;;;;;;4589338;19;20479;-31
2022/10/21 06:14:12;;;;;;;14.38;11.23;;;17.20;94.10;;;;;;4589061;19;20050;-32
2022/10/21 06:15:43;;;;;;;13.27;10.60;;;17.30;94.10;;;;;;4589322;19;20151;-31
2022/10/21 06:17:14;;;;;;;12.55;10.55;;;17.30;94.00;;;;;;4589585;19;20499;-29
2022/10/21 06:18:47;;;;;;;13.63;12.02;;;17.30;94.00;;;;;;4589818;19;20014;-29
2022/10/21 06:20:18;;;;;;;14.05;11.55;;;15.70;94.70;;;;;;4588948;19;20385;-30
2022/10/21 06:21:49;;;;;;;15.15;11.02;;;14.90;96.30;;;;;;4589235;19;20018;-30
2022/10/21 06:23:20;;;;;;;15.13;11.10;;;15.40;96.10;;;;;;4588603;19;20017;-32
2022/10/21 06:24:51;;;;;;;14.13;10.05;;;15.80;95.70;;;;;;4587770;19;20014;-29
2022/10/21 06:26:23;;;;;;;14.32;11.57;;;16.20;95.40;;;;;;4587443;19;20460;-31
2022/10/21 06:27:58;;;;;;;23.60;15.80;;;16.40;95.30;;;;;;4586691;19;20068;-29
2022/10/21 06:29:31;;;;;;;18.63;14.13;;;16.40;95.20;;;;;;4588549;19;20029;-30
2022/10/21 06:31:05;;;;;;;15.68;11.50;;;16.50;95.20;;;;;;4587140;19;20014;-31
2022/10/21 06:32:36;;;;;;;21.90;13.32;;;16.60;95.30;;;;;;4587471;19;20006;-32
2022/10/21 06:34:07;;;;;;;20.60;12.15;;;16.60;95.00;;;;;;4587919;19;20471;-30
2022/10/21 06:35:39;;;;;;;18.00;11.98;;;16.60;95.00;;;;;;4591753;19;20011;-30
2022/10/21 06:37:12;;;;;;;15.48;11.98;;;16.70;95.00;;;;;;4593962;19;20010;-30
2022/10/21 06:38:43;;;;;;;16.65;12.63;;;16.70;95.00;;;;;;4592409;19;20022;-29
2022/10/21 06:40:15;;;;;;;14.95;11.68;;;16.70;94.90;;;;;;4593316;19;20022;-30
2022/10/21 06:41:46;;;;;;;13.57;10.73;;;16.70;94.90;;;;;;4592475;19;20018;-30
2022/10/21 06:43:17;;;;;;;13.77;10.18;;;16.80;95.00;;;;;;4593763;19;20006;-29
2022/10/21 06:44:48;;;;;;;14.95;10.70;;;16.80;95.00;;;;;;4593919;19;20023;-29
2022/10/21 06:46:20;;;;;;;13.82;11.07;;;16.80;94.90;;;;;;4594156;19;20038;-29
2022/10/21 06:47:51;;;;;;;13.25;10.50;;;16.90;94.90;;;;;;4593659;19;20010;-30
2022/10/21 06:49:22;;;;;;;19.55;12.02;;;16.90;95.00;;;;;;4594317;19;20010;-30
2022/10/21 06:51:17;;;;;;;15.93;11.77;;;16.80;95.10;;;;;;4592228;19;20508;-30
2022/10/21 06:52:49;;;;;;;16.92;12.65;;;16.80;95.20;;;;;;4590708;19;20018;-28
2022/10/21 06:54:20;;;;;;;15.60;11.15;;;16.70;95.10;;;;;;4592304;19;20017;-28
2022/10/21 06:56:03;;;;;;;15.10;11.57;;;16.70;95.20;;;;;;4592572;19;20038;-30
2022/10/21 06:57:34;;;;;;;14.18;11.43;;;16.70;95.30;;;;;;4591034;19;20015;-31
2022/10/21 06:59:05;;;;;;;12.85;10.40;;;16.70;95.20;;;;;;4590931;19;20018;-29
2022/10/21 07:00:37;;;;;;;14.77;11.05;;;16.70;95.20;;;;;;4591008;19;20007;-33
2022/10/21 07:02:08;;;;;;;16.52;10.10;;;16.80;95.30;;;;;;4591837;19;20431;-29
2022/10/21 07:03:41;;;;;;;13.27;10.30;;;16.80;95.20;;;;;;4590824;19;20098;-30
2022/10/21 07:05:17;;;;;;;14.10;10.25;;;16.80;95.20;;;;;;4591323;19;20496;-30
2022/10/21 07:06:49;;;;;;;13.35;11.02;;;16.80;95.30;;;;;;4589650;19;20011;-30
2022/10/21 07:08:21;;;;;;;14.57;10.57;;;16.80;95.30;;;;;;4591695;19;20040;-30
2022/10/21 07:09:56;;;;;;;15.05;11.20;;;16.80;95.20;;;;;;4590708;19;20016;-30
2022/10/21 07:11:28;;;;;;;15.25;10.18;;;16.80;95.20;;;;;;4591307;19;20039;-29
2022/10/21 07:12:59;;;;;;;13.88;10.48;;;16.90;95.30;;;;;;4589891;19;20018;-31
2022/10/21 07:14:30;;;;;;;14.38;10.68;;;16.90;95.90;;;;;;4591277;19;20007;-28
2022/10/21 07:16:07;;;;;;;15.95;11.38;;;16.90;95.20;;;;;;4590631;19;20010;-29
2022/10/21 07:17:39;;;;;;;13.07;10.48;;;16.90;95.20;;;;;;4590380;19;20006;-30
2022/10/21 07:19:11;;;;;;;12.23;10.40;;;16.90;95.30;;;;;;4590561;19;20014;-32
2022/10/21 07:20:42;;;;;;;14.48;10.93;;;16.90;95.40;;;;;;4592249;19;20010;-29
2022/10/21 07:22:16;;;;;;;13.63;10.70;;;16.90;95.40;;;;;;4590381;19;20046;-29
2022/10/21 07:23:50;;;;;;;14.38;10.98;;;16.90;95.50;;;;;;4590178;19;20014;-30
2022/10/21 07:25:21;;;;;;;13.45;10.25;;;16.90;95.40;;;;;;4590990;19;20445;-31
2022/10/21 07:26:54;;;;;;;14.10;11.13;;;16.90;95.80;;;;;;4590938;19;20010;-29
2022/10/21 07:28:29;;;;;;;14.52;11.00;;;16.90;95.60;;;;;;4590899;19;20038;-29
2022/10/21 07:30:08;;;;;;;15.48;11.88;;;16.90;95.50;;;;;;4592257;19;20519;-30
2022/10/21 07:31:39;;;;;;;13.63;10.90;;;17.00;95.60;;;;;;4591699;19;20014;-33
2022/10/21 07:33:11;;;;;;;14.15;10.88;;;17.00;95.60;;;;;;4591720;19;20002;-28
2022/10/21 07:34:42;;;;;;;22.42;14.25;;;17.10;95.60;;;;;;4592082;19;20098;-29
2022/10/21 07:36:15;;;;;;;28.77;17.75;;;17.10;95.60;;;;;;4592341;19;20019;-30
2022/10/21 07:37:47;;;;;;;21.08;14.73;;;17.10;95.70;;;;;;4592648;19;20010;-30
2022/10/21 07:39:21;;;;;;;16.02;12.77;;;17.10;95.60;;;;;;4593609;19;20464;-29
2022/10/21 07:40:52;;;;;;;18.67;12.52;;;17.10;95.70;;;;;;4591086;19;20006;-30
2022/10/21 07:42:23;;;;;;;15.07;11.85;;;17.10;95.70;;;;;;4591967;19;20365;-31
2022/10/21 07:43:55;;;;;;;18.48;12.25;;;17.10;95.70;;;;;;4589705;19;20015;-30
2022/10/21 07:45:26;;;;;;;14.10;11.20;;;17.10;95.80;;;;;;4590596;19;20088;-35
2022/10/21 07:46:57;;;;;;;13.73;10.50;;;17.20;95.90;;;;;;4591699;19;20034;-28
2022/10/21 07:48:28;;;;;;;13.20;10.43;;;17.20;96.00;;;;;;4593000;19;20018;-29
2022/10/21 07:49:59;;;;;;;13.18;10.52;;;17.20;96.10;;;;;;4589796;19;20010;-31
2022/10/21 07:51:31;;;;;;;14.00;9.95;;;17.10;96.10;;;;;;4591771;19;20031;-29
2022/10/21 07:53:02;;;;;;;12.82;10.68;;;17.20;96.10;;;;;;4590689;19;20025;-33
2022/10/21 07:54:36;;;;;;;12.90;10.18;;;17.20;96.20;;;;;;4590616;19;20010;-31
2022/10/21 07:56:18;;;;;;;12.48;9.30;;;17.20;96.20;;;;;;4589729;19;20014;-34
2022/10/21 07:57:49;;;;;;;13.43;9.60;;;17.20;96.20;;;;;;4591555;19;20383;-30
2022/10/21 07:59:21;;;;;;;13.57;11.02;;;17.20;96.20;;;;;;4592039;19;20344;-28
2022/10/21 08:00:52;;;;;;;13.93;10.95;;;17.20;96.30;;;;;;4591238;19;20015;-29
2022/10/21 08:02:23;;;;;;;11.90;9.38;;;17.20;96.30;;;;;;4592287;19;20375;-28